Time;durP1;ratioP1;P1;durP2;ratioP2;P2;SDS_P1;SDS_P2;PMS_P1;PMS_P2;Temp;Humidity;BMP_temperature;BMP_pressure;BME280_temperature;BME280_humidity;BME280_pressure;Samples;Min_cycle;Max_cycle;Signal;HPM_P1;HPM_P2
2022/10/07 00:01:08;;;;;;;5.68;2.15;;;;;;;;;;4955956;28;20035;-84
2022/10/07 00:03:34;;;;;;;8.10;2.38;;;;;;;;;;4961127;28;20046;-84
2022/10/07 00:06:05;;;;;;;4.72;2.33;;;;;;;;;;4958639;28;20035;-84
2022/10/07 00:08:32;;;;;;;8.73;2.65;;;;;;;;;;4958994;28;20627;-84
2022/10/07 00:11:03;;;;;;;7.18;2.60;;;;;;;;;;4963754;28;20043;-84
2022/10/07 00:13:28;;;;;;;7.32;2.88;;;;;;;;;;4967142;28;20030;-84
2022/10/07 00:15:53;;;;;;;7.28;2.60;;;;;;;;;;4961926;28;20050;-84
2022/10/07 00:18:19;;;;;;;9.15;2.60;;;;;;;;;;4965378;28;20033;-84
2022/10/07 00:20:44;;;;;;;7.38;2.58;;;;;;;;;;4956324;28;20387;-84
2022/10/07 00:23:10;;;;;;;6.13;2.75;;;;;;;;;;4965954;28;20461;-85
2022/10/07 00:25:38;;;;;;;5.60;2.47;;;;;;;;;;4963545;28;20114;-84
2022/10/07 00:28:04;;;;;;;9.88;2.97;;;;;;;;;;4964254;28;20093;-84
2022/10/07 00:30:30;;;;;;;10.27;2.92;;;;;;;;;;4961227;28;20033;-84
2022/10/07 00:32:55;;;;;;;7.63;2.55;;;;;;;;;;4961518;28;20110;-84
2022/10/07 00:35:21;;;;;;;6.40;2.53;;;;;;;;;;4964474;28;20026;-84
2022/10/07 00:37:46;;;;;;;6.78;2.70;;;;;;;;;;4960686;28;20027;-84
2022/10/07 00:40:12;;;;;;;6.95;2.78;;;;;;;;;;4966144;28;20443;-84
2022/10/07 00:42:39;;;;;;;8.18;2.70;;;;;;;;;;4967637;28;20030;-84
2022/10/07 00:45:11;;;;;;;6.80;2.60;;;;;;;;;;4968877;28;20061;-84
2022/10/07 00:47:37;;;;;;;7.55;2.83;;;;;;;;;;4962543;28;20027;-84
2022/10/07 00:50:02;;;;;;;6.32;2.40;;;;;;;;;;4968796;28;20089;-84
2022/10/07 00:52:31;;;;;;;7.72;2.72;;;;;;;;;;4966966;28;20035;-84
2022/10/07 00:55:03;;;;;;;7.20;2.65;;;;;;;;;;4965889;28;20724;-84
2022/10/07 00:57:30;;;;;;;6.53;2.72;;;;;;;;;;4959154;28;20031;-84
2022/10/07 00:59:57;;;;;;;7.72;2.80;;;;;;;;;;4959616;28;20019;-84
2022/10/07 01:02:24;;;;;;;8.02;2.55;;;;;;;;;;4968783;28;20495;-83
2022/10/07 01:04:51;;;;;;;6.70;2.92;;;;;;;;;;4968188;28;20172;-84
2022/10/07 01:07:19;;;;;;;6.72;2.70;;;;;;;;;;4962762;28;20019;-84
2022/10/07 01:09:47;;;;;;;7.78;2.60;;;;;;;;;;4961618;28;20051;-84
2022/10/07 01:12:26;;;;;;;7.10;2.67;;;;;;;;;;4976446;28;20101;-84
2022/10/07 01:15:24;;;;;;;9.15;2.80;;;;;;;;;;4965192;28;20509;-84
2022/10/07 01:18:07;;;;;;;6.30;2.45;;;;;;;;;;4923765;28;20054;-84
2022/10/07 01:20:54;;;;;;;8.23;2.78;;;;;;;;;;4964558;28;20041;-84
2022/10/07 01:23:43;;;;;;;6.97;2.33;;;;;;;;;;4963221;28;20035;-84
2022/10/07 01:26:42;;;;;;;7.93;2.83;;;;;;;;;;4963256;28;20172;-84
2022/10/07 01:29:21;;;;;;;9.20;3.35;;;;;;;;;;4957887;28;20038;-84
2022/10/07 01:31:55;;;;;;;7.03;2.75;;;;;;;;;;4976369;28;20034;-84
2022/10/07 01:34:23;;;;;;;6.78;2.80;;;;;;;;;;4961772;28;20169;-84
2022/10/07 01:36:52;;;;;;;9.07;2.40;;;;;;;;;;4963225;28;20381;-84
2022/10/07 01:39:23;;;;;;;7.00;2.20;;;;;;;;;;4965925;28;20023;-84
2022/10/07 01:41:49;;;;;;;7.05;2.50;;;;;;;;;;4979646;28;20094;-84
2022/10/07 01:44:15;;;;;;;6.50;2.67;;;;;;;;;;4970344;28;20027;-84
2022/10/07 01:46:42;;;;;;;5.93;2.38;;;;;;;;;;4962660;28;20402;-84
2022/10/07 01:49:08;;;;;;;5.10;2.28;;;;;;;;;;4963963;28;21577;-84
2022/10/07 01:51:37;;;;;;;8.07;3.03;;;;;;;;;;4961025;28;20431;-84
2022/10/07 01:54:47;;;;;;;10.25;2.63;;;;;;;;;;4966004;28;20039;-84
2022/10/07 01:57:17;;;;;;;7.38;2.00;;;;;;;;;;4912693;29;20028;-84
2022/10/07 01:59:52;;;;;;;8.15;2.65;;;;;;;;;;4955580;28;20593;-83
2022/10/07 02:02:34;;;;;;;6.45;2.63;;;;;;;;;;4971226;28;20038;-84
2022/10/07 02:05:13;;;;;;;8.02;2.65;;;;;;;;;;4962202;28;20458;-84
2022/10/07 02:07:55;;;;;;;10.43;2.65;;;;;;;;;;4964736;28;20037;-84
2022/10/07 02:10:31;;;;;;;7.85;2.50;;;;;;;;;;4964608;28;20047;-84
2022/10/07 02:13:07;;;;;;;7.45;2.55;;;;;;;;;;4964022;28;20498;-84
2022/10/07 02:15:50;;;;;;;9.63;2.30;;;;;;;;;;4966411;28;20038;-84
2022/10/07 02:18:18;;;;;;;10.73;2.83;;;;;;;;;;4966442;28;20550;-84
2022/10/07 02:20:48;;;;;;;7.50;2.35;;;;;;;;;;4964067;28;20041;-84
2022/10/07 02:23:15;;;;;;;7.10;2.38;;;;;;;;;;4980479;28;20476;-84
2022/10/07 02:25:45;;;;;;;7.18;2.75;;;;;;;;;;4960652;28;20027;-84
2022/10/07 02:28:13;;;;;;;7.25;2.17;;;;;;;;;;4966533;28;20123;-84
2022/10/07 02:30:41;;;;;;;9.25;2.88;;;;;;;;;;4963446;28;20267;-84
2022/10/07 02:33:07;;;;;;;7.38;2.70;;;;;;;;;;4963643;28;20525;-85
2022/10/07 02:35:38;;;;;;;7.72;2.80;;;;;;;;;;4983091;28;20086;-84
2022/10/07 02:38:08;;;;;;;6.00;2.60;;;;;;;;;;4965730;28;20038;-84
2022/10/07 02:40:43;;;;;;;5.35;2.30;;;;;;;;;;4960111;28;20438;-84
2022/10/07 02:43:22;;;;;;;5.13;2.45;;;;;;;;;;4962848;28;20516;-84
2022/10/07 02:45:55;;;;;;;5.85;2.33;;;;;;;;;;4968091;28;20391;-84
2022/10/07 02:48:57;;;;;;;7.60;2.30;;;;;;;;;;4963574;28;20058;-84
2022/10/07 02:51:30;;;;;;;6.40;2.50;;;;;;;;;;4934365;28;20078;-84
2022/10/07 02:53:57;;;;;;;5.55;2.30;;;;;;;;;;4974364;28;20023;-84
2022/10/07 02:56:25;;;;;;;5.60;2.28;;;;;;;;;;4962211;28;20034;-84
2022/10/07 02:58:51;;;;;;;4.72;2.15;;;;;;;;;;4962310;28;20042;-84
2022/10/07 03:01:22;;;;;;;5.97;2.05;;;;;;;;;;4959023;28;20035;-84
2022/10/07 03:03:47;;;;;;;6.43;2.08;;;;;;;;;;4962860;28;20031;-84
2022/10/07 03:06:16;;;;;;;10.23;2.63;;;;;;;;;;4965153;28;20435;-84
2022/10/07 03:08:43;;;;;;;10.02;2.65;;;;;;;;;;4964387;28;20399;-84
2022/10/07 03:11:08;;;;;;;8.23;2.40;;;;;;;;;;4965177;28;20043;-84
2022/10/07 03:13:34;;;;;;;7.13;2.30;;;;;;;;;;4963470;28;20046;-84
2022/10/07 03:15:59;;;;;;;8.02;2.25;;;;;;;;;;4979119;28;20026;-83
2022/10/07 03:18:25;;;;;;;6.80;2.10;;;;;;;;;;4963379;28;20360;-84
2022/10/07 03:20:54;;;;;;;7.82;2.40;;;;;;;;;;4964393;28;20121;-84
2022/10/07 03:23:20;;;;;;;6.22;2.30;;;;;;;;;;4958767;28;20391;-85
2022/10/07 03:25:55;;;;;;;6.57;2.03;;;;;;;;;;4961628;28;20097;-84
2022/10/07 03:28:21;;;;;;;7.75;2.28;;;;;;;;;;4977068;28;20023;-84
2022/10/07 03:30:48;;;;;;;6.95;2.50;;;;;;;;;;4964919;28;20368;-84
2022/10/07 03:33:15;;;;;;;5.50;2.20;;;;;;;;;;4960929;28;20035;-84
2022/10/07 03:35:40;;;;;;;7.47;2.63;;;;;;;;;;4965886;28;20027;-84
2022/10/07 03:38:07;;;;;;;6.80;2.40;;;;;;;;;;4955499;28;20062;-84
2022/10/07 03:40:33;;;;;;;7.93;2.28;;;;;;;;;;4957970;28;20046;-84
2022/10/07 03:42:59;;;;;;;10.52;2.85;;;;;;;;;;4963509;28;20125;-84
2022/10/07 03:45:24;;;;;;;10.02;2.65;;;;;;;;;;4970033;28;20058;-84
2022/10/07 03:47:49;;;;;;;6.85;2.70;;;;;;;;;;4965161;28;20042;-84
2022/10/07 03:50:15;;;;;;;7.50;2.78;;;;;;;;;;4954396;28;20023;-84
2022/10/07 03:52:40;;;;;;;5.72;2.20;;;;;;;;;;4960695;28;20487;-84
2022/10/07 03:55:07;;;;;;;9.40;2.53;;;;;;;;;;4964100;28;20038;-84
2022/10/07 04:00:20;;;;;;;8.45;2.25;;;;;;;;;;4959510;28;20130;-84
2022/10/07 04:02:46;;;;;;;7.53;2.35;;;;;;;;;;4965889;28;20031;-84
2022/10/07 04:05:14;;;;;;;6.97;2.30;;;;;;;;;;4959649;28;20061;-84
2022/10/07 04:07:43;;;;;;;7.55;2.45;;;;;;;;;;4966226;28;20022;-84
2022/10/07 04:10:10;;;;;;;7.03;2.33;;;;;;;;;;4969858;28;21507;-84
2022/10/07 04:12:36;;;;;;;6.30;2.40;;;;;;;;;;4966078;28;20113;-84
2022/10/07 04:15:02;;;;;;;8.07;2.63;;;;;;;;;;4963888;28;20516;-84
2022/10/07 04:17:28;;;;;;;8.95;2.60;;;;;;;;;;4964952;28;20050;-84
2022/10/07 04:19:53;;;;;;;9.63;2.60;;;;;;;;;;4965688;28;20034;-84
2022/10/07 04:22:18;;;;;;;7.18;2.67;;;;;;;;;;4965146;28;20037;-84
2022/10/07 04:25:32;;;;;;;5.53;2.35;;;;;;;;;;4967376;28;20061;-84
2022/10/07 04:27:30;;;;;;;6.47;2.42;;;;;;;;;;4963297;28;20471;-84
2022/10/07 04:29:55;;;;;;;6.75;2.25;;;;;;;;;;4964613;28;20054;-84
2022/10/07 04:32:21;;;;;;;8.05;2.80;;;;;;;;;;4966722;28;20018;-84
2022/10/07 04:34:47;;;;;;;10.02;2.50;;;;;;;;;;4965547;28;20026;-84
2022/10/07 04:37:13;;;;;;;8.77;2.55;;;;;;;;;;4969745;28;20038;-84
2022/10/07 04:39:38;;;;;;;6.22;2.63;;;;;;;;;;4965815;28;20026;-84
2022/10/07 04:42:04;;;;;;;6.40;2.35;;;;;;;;;;4961918;28;20283;-84
2022/10/07 04:44:29;;;;;;;9.85;3.30;;;;;;;;;;4961878;28;20026;-83
2022/10/07 04:46:55;;;;;;;7.85;3.15;;;;;;;;;;4960251;28;20059;-83
2022/10/07 04:49:21;;;;;;;7.97;2.67;;;;;;;;;;4960290;28;20484;-83
2022/10/07 04:51:46;;;;;;;10.40;2.70;;;;;;;;;;4967314;28;20023;-84
2022/10/07 04:54:12;;;;;;;11.32;2.78;;;;;;;;;;4962238;28;20440;-84
2022/10/07 04:56:37;;;;;;;9.27;2.75;;;;;;;;;;4964362;28;20034;-84
2022/10/07 04:59:03;;;;;;;8.60;2.85;;;;;;;;;;4966615;28;20411;-84
2022/10/07 05:01:29;;;;;;;6.93;2.42;;;;;;;;;;4962014;28;20513;-84
2022/10/07 05:03:55;;;;;;;6.20;2.72;;;;;;;;;;4961947;28;20027;-84
2022/10/07 05:06:20;;;;;;;8.00;2.30;;;;;;;;;;4961936;28;20519;-83
2022/10/07 05:08:46;;;;;;;10.27;2.35;;;;;;;;;;4970101;28;20027;-84
2022/10/07 05:11:11;;;;;;;10.02;3.05;;;;;;;;;;4965560;28;20050;-84
2022/10/07 05:13:37;;;;;;;8.50;2.67;;;;;;;;;;4966352;28;20415;-84
2022/10/07 05:16:03;;;;;;;8.52;3.03;;;;;;;;;;4964825;28;20027;-84
2022/10/07 05:18:29;;;;;;;8.73;2.58;;;;;;;;;;4965809;28;20038;-84
2022/10/07 05:20:55;;;;;;;9.43;2.42;;;;;;;;;;4981274;28;20031;-84
2022/10/07 05:23:22;;;;;;;7.45;2.35;;;;;;;;;;4967883;28;20072;-83
2022/10/07 05:25:56;;;;;;;7.78;2.40;;;;;;;;;;4969523;28;20114;-84
2022/10/07 05:28:22;;;;;;;7.50;2.38;;;;;;;;;;4966784;28;21432;-84
2022/10/07 05:30:48;;;;;;;7.93;2.58;;;;;;;;;;4962671;28;20038;-84
2022/10/07 05:33:13;;;;;;;9.88;2.63;;;;;;;;;;4966033;28;20399;-84
2022/10/07 05:35:44;;;;;;;6.75;2.45;;;;;;;;;;4968914;28;20038;-84
2022/10/07 05:38:10;;;;;;;8.73;2.70;;;;;;;;;;4961509;28;20035;-84
2022/10/07 05:40:35;;;;;;;6.57;2.22;;;;;;;;;;4967617;28;20030;-83
2022/10/07 05:43:01;;;;;;;6.53;2.28;;;;;;;;;;4963968;28;20121;-83
2022/10/07 05:45:26;;;;;;;6.78;2.60;;;;;;;;;;4960311;28;20101;-84
2022/10/07 05:47:51;;;;;;;6.10;2.40;;;;;;;;;;4968176;28;20048;-84
2022/10/07 05:50:17;;;;;;;7.18;2.35;;;;;;;;;;4968922;28;20480;-84
2022/10/07 05:52:44;;;;;;;8.23;2.60;;;;;;;;;;4963606;28;20035;-83
2022/10/07 05:55:09;;;;;;;5.75;2.17;;;;;;;;;;4962868;28;20031;-84
2022/10/07 05:57:35;;;;;;;8.35;2.53;;;;;;;;;;4978029;28;20054;-84
2022/10/07 06:00:02;;;;;;;8.02;2.65;;;;;;;;;;4969259;28;20113;-84
2022/10/07 06:02:28;;;;;;;9.27;2.60;;;;;;;;;;4968925;28;20030;-84
2022/10/07 06:04:53;;;;;;;7.60;2.33;;;;;;;;;;4968440;28;20037;-84
2022/10/07 06:07:18;;;;;;;8.60;3.05;;;;;;;;;;4967902;28;20066;-84
2022/10/07 06:15:12;;;;;;;6.28;2.40;;;;;;;;;;4964299;28;21516;-83
2022/10/07 06:17:43;;;;;;;13.50;3.72;;;;;;;;;;4960024;28;20030;-84
2022/10/07 06:20:09;;;;;;;9.95;2.80;;;;;;;;;;4962640;28;20521;-84
2022/10/07 06:22:35;;;;;;;8.77;3.05;;;;;;;;;;4963337;28;20038;-83
2022/10/07 06:25:01;;;;;;;7.82;2.70;;;;;;;;;;4970717;28;20026;-84
2022/10/07 06:27:27;;;;;;;8.48;2.63;;;;;;;;;;4964862;28;20480;-84
2022/10/07 06:29:53;;;;;;;10.85;2.92;;;;;;;;;;4967656;28;20022;-84
2022/10/07 06:32:18;;;;;;;6.13;2.35;;;;;;;;;;4967078;28;20030;-84
2022/10/07 06:34:44;;;;;;;9.77;2.95;;;;;;;;;;4965619;28;20388;-83
2022/10/07 06:37:09;;;;;;;8.32;2.85;;;;;;;;;;4969809;28;20073;-84
2022/10/07 06:39:34;;;;;;;8.68;2.88;;;;;;;;;;4970570;28;20029;-84
2022/10/07 06:42:00;;;;;;;8.68;3.00;;;;;;;;;;4968543;28;20023;-85
2022/10/07 06:44:27;;;;;;;11.25;3.00;;;;;;;;;;4964659;28;20444;-85
2022/10/07 06:46:52;;;;;;;9.00;2.78;;;;;;;;;;4965312;28;20043;-85
2022/10/07 06:49:17;;;;;;;7.32;2.70;;;;;;;;;;4956080;28;20023;-85
2022/10/07 06:51:43;;;;;;;9.15;2.70;;;;;;;;;;4975748;28;20039;-85
2022/10/07 06:54:08;;;;;;;10.43;3.83;;;;;;;;;;4964526;28;20455;-84
2022/10/07 06:56:34;;;;;;;8.90;3.50;;;;;;;;;;4966701;28;20034;-85
2022/10/07 06:59:00;;;;;;;8.55;2.88;;;;;;;;;;4962227;28;20033;-84
2022/10/07 07:01:26;;;;;;;8.40;3.30;;;;;;;;;;4959625;28;20031;-85
2022/10/07 07:03:52;;;;;;;9.02;3.40;;;;;;;;;;4969705;28;20501;-85
2022/10/07 07:06:18;;;;;;;7.53;2.88;;;;;;;;;;4970744;28;20030;-85
2022/10/07 07:08:44;;;;;;;12.65;3.63;;;;;;;;;;4970335;28;20467;-85
2022/10/07 07:13:56;;;;;;;8.05;2.63;;;;;;;;;;4970310;28;20090;-85
2022/10/07 07:16:23;;;;;;;12.93;3.28;;;;;;;;;;4956666;28;20046;-84
2022/10/07 07:18:57;;;;;;;7.55;3.08;;;;;;;;;;4965157;28;20038;-85
2022/10/07 07:21:23;;;;;;;9.68;2.97;;;;;;;;;;4967336;28;20037;-85
2022/10/07 07:23:52;;;;;;;8.70;2.75;;;;;;;;;;4966722;28;20041;-85
2022/10/07 07:26:18;;;;;;;7.63;2.75;;;;;;;;;;4973353;28;20023;-85
2022/10/07 07:28:50;;;;;;;6.88;2.78;;;;;;;;;;4967547;28;20054;-85
2022/10/07 07:31:15;;;;;;;12.48;2.88;;;;;;;;;;4968045;28;20537;-84
2022/10/07 07:33:41;;;;;;;11.15;3.20;;;;;;;;;;4967987;28;20026;-85
2022/10/07 07:36:17;;;;;;;10.15;3.00;;;;;;;;;;4967702;28;20415;-85
2022/10/07 07:38:43;;;;;;;10.43;3.00;;;;;;;;;;4968850;28;20411;-85
2022/10/07 07:41:09;;;;;;;10.00;3.00;;;;;;;;;;4969318;28;20046;-85
2022/10/07 07:43:36;;;;;;;8.43;2.92;;;;;;;;;;4976089;28;20379;-86
2022/10/07 07:46:01;;;;;;;9.68;3.00;;;;;;;;;;4969584;28;20035;-86
2022/10/07 07:48:26;;;;;;;8.35;2.78;;;;;;;;;;4969736;28;20038;-85
2022/10/07 07:50:52;;;;;;;9.93;2.90;;;;;;;;;;4973677;28;20042;-85
2022/10/07 07:53:17;;;;;;;9.43;2.83;;;;;;;;;;4970996;28;20498;-85
2022/10/07 07:55:56;;;;;;;7.22;2.58;;;;;;;;;;4967386;28;20042;-85
2022/10/07 07:58:23;;;;;;;9.93;2.88;;;;;;;;;;4951392;28;20505;-85
2022/10/07 08:01:17;;;;;;;7.80;2.88;;;;;;;;;;4969925;28;20167;-85
2022/10/07 08:03:45;;;;;;;11.18;2.92;;;;;;;;;;4958604;28;20574;-85
2022/10/07 08:06:12;;;;;;;8.93;2.67;;;;;;;;;;4975168;28;20034;-85
2022/10/07 08:08:37;;;;;;;9.48;2.72;;;;;;;;;;4970160;28;20495;-85
2022/10/07 08:11:10;;;;;;;11.05;2.58;;;;;;;;;;4973197;28;20047;-85
2022/10/07 08:13:38;;;;;;;11.52;2.80;;;;;;;;;;4972932;28;20065;-86
2022/10/07 08:16:04;;;;;;;7.85;2.30;;;;;;;;;;4970143;28;20509;-85
2022/10/07 08:18:32;;;;;;;8.15;2.40;;;;;;;;;;4976623;28;20102;-85
2022/10/07 08:21:00;;;;;;;8.35;2.75;;;;;;;;;;4974897;28;20031;-85
2022/10/07 08:23:28;;;;;;;7.88;2.65;;;;;;;;;;4965696;28;20033;-85
2022/10/07 08:25:56;;;;;;;8.80;2.50;;;;;;;;;;4973558;28;20018;-85
2022/10/07 08:28:23;;;;;;;11.20;2.80;;;;;;;;;;4973645;28;20046;-85
2022/10/07 08:30:52;;;;;;;10.32;2.40;;;;;;;;;;4970969;28;20069;-85
2022/10/07 08:33:19;;;;;;;7.32;2.90;;;;;;;;;;4973962;28;20031;-85
2022/10/07 08:35:57;;;;;;;9.30;2.85;;;;;;;;;;4973217;28;20035;-86
2022/10/07 08:38:22;;;;;;;8.02;2.83;;;;;;;;;;4962744;28;20121;-85
2022/10/07 08:40:49;;;;;;;11.68;2.80;;;;;;;;;;4973761;28;20137;-85
2022/10/07 08:43:17;;;;;;;9.82;2.45;;;;;;;;;;4971910;28;20463;-86
2022/10/07 08:45:43;;;;;;;5.82;2.20;;;;;;;;;;4966981;28;20311;-86
2022/10/07 08:48:16;;;;;;;7.95;2.30;;;;;;;;;;4972435;28;20030;-86
2022/10/07 08:50:55;;;;;;;8.13;2.63;;;;;;;;;;4961939;28;20111;-85
2022/10/07 08:53:29;;;;;;;8.75;2.80;;;;;;;;;;4975420;28;20554;-85
2022/10/07 08:56:00;;;;;;;6.50;2.17;;;;;;;;;;4967028;28;20563;-85
2022/10/07 08:58:37;;;;;;;8.90;2.22;;;;;;;;;;4987763;28;20058;-86
2022/10/07 09:01:14;;;;;;;8.23;2.30;;;;;;;;;;4966963;28;20046;-86
2022/10/07 09:04:14;;;;;;;8.52;2.03;;;;;;;;;;4972866;28;20058;-85
2022/10/07 09:06:55;;;;;;;8.05;1.70;;;;;;;;;;4962580;28;20121;-86
2022/10/07 09:09:52;;;;;;;8.90;2.15;;;;;;;;;;4964634;28;20059;-86
2022/10/07 09:12:39;;;;;;;8.02;2.13;;;;;;;;;;4960897;28;20402;-86
2022/10/07 09:15:14;;;;;;;8.57;2.08;;;;;;;;;;4965265;28;20501;-86
2022/10/07 09:17:51;;;;;;;6.95;2.28;;;;;;;;;;4974899;28;20097;-86
2022/10/07 09:20:19;;;;;;;7.38;1.90;;;;;;;;;;4962289;28;20030;-86
2022/10/07 09:22:53;;;;;;;7.28;2.08;;;;;;;;;;4961953;28;20027;-86
2022/10/07 09:28:35;;;;;;;7.80;1.80;;;;;;;;;;4966320;28;20070;-86
2022/10/07 09:31:04;;;;;;;8.50;2.33;;;;;;;;;;4967552;28;20094;-86
2022/10/07 09:33:29;;;;;;;6.82;2.22;;;;;;;;;;4971628;28;20035;-86
2022/10/07 09:36:02;;;;;;;9.77;1.73;;;;;;;;;;4971687;28;20034;-86
2022/10/07 09:38:31;;;;;;;;;;;;;;;;;;4970273;28;20027;-86
2022/10/07 09:41:15;;;;;;;5.95;1.58;;;;;;;;;;4972804;28;19921;-86
2022/10/07 09:44:08;;;;;;;7.40;1.60;;;;;;;;;;4965756;28;20046;-87
2022/10/07 09:46:47;;;;;;;5.63;1.58;;;;;;;;;;4962193;28;20069;-86
2022/10/07 09:49:29;;;;;;;4.97;1.45;;;;;;;;;;4968536;28;20062;-86
2022/10/07 09:52:00;;;;;;;5.07;1.33;;;;;;;;;;4965042;28;20058;-86
2022/10/07 09:54:26;;;;;;;6.68;1.50;;;;;;;;;;4968073;28;20030;-86
2022/10/07 09:56:57;;;;;;;7.50;1.58;;;;;;;;;;4970615;28;20094;-86
2022/10/07 09:59:25;;;;;;;9.45;1.48;;;;;;;;;;4967751;28;20042;-86
2022/10/07 10:01:52;;;;;;;8.60;1.70;;;;;;;;;;4971269;28;20483;-85
2022/10/07 10:04:20;;;;;;;7.05;1.63;;;;;;;;;;4971921;28;20027;-86
2022/10/07 10:06:48;;;;;;;9.38;1.48;;;;;;;;;;4973363;28;20483;-87
2022/10/07 10:09:20;;;;;;;5.63;1.90;;;;;;;;;;4964168;28;20046;-86
2022/10/07 10:12:02;;;;;;;8.67;2.00;;;;;;;;;;4966893;28;20031;-87
2022/10/07 10:14:49;;;;;;;5.95;1.70;;;;;;;;;;4972940;28;20027;-87
2022/10/07 10:17:23;;;;;;;10.63;1.70;;;;;;;;;;4966641;28;20034;-87
2022/10/07 10:19:49;;;;;;;4.70;1.40;;;;;;;;;;4972373;28;20467;-86
2022/10/07 10:22:30;;;;;;;8.73;1.70;;;;;;;;;;4969183;28;20053;-86
2022/10/07 10:28:03;;;;;;;6.68;1.88;;;;;;;;;;4965627;28;20041;-87
2022/10/07 10:30:29;;;;;;;8.65;1.58;;;;;;;;;;4972567;28;20027;-87
2022/10/07 10:33:08;;;;;;;12.32;1.65;;;;;;;;;;4969245;28;20037;-86
2022/10/07 10:35:43;;;;;;;6.93;1.50;;;;;;;;;;4972218;28;20492;-87
2022/10/07 10:38:32;;;;;;;5.50;1.40;;;;;;;;;;4970559;28;20025;-87
2022/10/07 10:41:09;;;;;;;5.80;1.60;;;;;;;;;;4973043;28;20047;-86
2022/10/07 10:43:49;;;;;;;6.30;1.17;;;;;;;;;;4984715;28;20472;-87
2022/10/07 10:46:33;;;;;;;7.45;1.33;;;;;;;;;;4973606;28;20103;-86
2022/10/07 10:49:27;;;;;;;6.50;1.60;;;;;;;;;;4966968;28;20023;-87
2022/10/07 10:52:01;;;;;;;7.07;1.40;;;;;;;;;;4956981;28;20126;-87
2022/10/07 10:54:38;;;;;;;6.82;1.30;;;;;;;;;;4969789;28;20030;-87
2022/10/07 10:57:39;;;;;;;5.28;1.27;;;;;;;;;;4971460;28;20483;-87
2022/10/07 11:00:19;;;;;;;9.13;1.50;;;;;;;;;;4964657;28;20487;-87
2022/10/07 11:03:28;;;;;;;5.35;1.55;;;;;;;;;;4970392;28;20042;-86
2022/10/07 11:05:54;;;;;;;3.60;1.00;;;;;;;;;;4955381;28;20042;-86
2022/10/07 11:08:32;;;;;;;7.95;1.35;;;;;;;;;;4969748;28;20130;-86
2022/10/07 11:11:05;;;;;;;5.07;1.20;;;;;;;;;;4971332;28;20058;-86
2022/10/07 11:13:42;;;;;;;7.25;1.30;;;;;;;;;;4963346;28;20483;-86
2022/10/07 11:16:23;;;;;;;4.80;1.10;;;;;;;;;;4970863;28;20019;-86
2022/10/07 11:18:54;;;;;;;7.15;1.60;;;;;;;;;;4968877;28;20031;-87
2022/10/07 11:21:33;;;;;;;5.75;1.65;;;;;;;;;;4968760;28;20115;-86
2022/10/07 11:24:03;;;;;;;6.55;1.42;;;;;;;;;;4971463;28;20386;-87
2022/10/07 11:26:32;;;;;;;7.38;1.20;;;;;;;;;;4971362;28;20461;-87
2022/10/07 11:29:04;;;;;;;4.22;1.02;;;;;;;;;;4970711;28;20567;-86
2022/10/07 11:31:35;;;;;;;8.77;1.63;;;;;;;;;;4964466;28;20078;-87
2022/10/07 11:34:27;;;;;;;4.35;0.93;;;;;;;;;;4971538;28;20034;-88
2022/10/07 11:37:04;;;;;;;6.60;1.30;;;;;;;;;;4971361;28;20026;-87
2022/10/07 11:39:30;;;;;;;5.63;1.20;;;;;;;;;;4971966;28;20111;-87
2022/10/07 11:42:02;;;;;;;7.07;1.23;;;;;;;;;;4965094;28;20031;-87
2022/10/07 11:44:41;;;;;;;9.73;1.48;;;;;;;;;;4966493;28;20086;-86
2022/10/07 11:47:13;;;;;;;6.90;1.20;;;;;;;;;;4972461;28;20530;-86
2022/10/07 11:49:45;;;;;;;3.55;1.00;;;;;;;;;;4965157;28;20191;-87
2022/10/07 11:52:19;;;;;;;3.35;0.95;;;;;;;;;;4970904;28;20110;-87
2022/10/07 11:55:10;;;;;;;6.82;1.50;;;;;;;;;;4970968;28;20476;-87
2022/10/07 11:57:42;;;;;;;7.30;1.52;;;;;;;;;;4973457;28;20479;-87
2022/10/07 12:00:23;;;;;;;4.20;1.30;;;;;;;;;;4971074;28;20019;-86
2022/10/07 12:02:49;;;;;;;4.28;1.27;;;;;;;;;;4972033;28;20030;-87
2022/10/07 12:05:33;;;;;;;6.50;1.20;;;;;;;;;;4961784;28;20031;-87
2022/10/07 12:08:02;;;;;;;7.22;1.10;;;;;;;;;;4969302;28;20039;-86
2022/10/07 12:10:32;;;;;;;4.70;1.10;;;;;;;;;;4965874;28;20042;-86
2022/10/07 12:13:10;;;;;;;8.48;1.25;;;;;;;;;;4965974;28;20365;-87
2022/10/07 12:15:38;;;;;;;6.38;1.05;;;;;;;;;;4961720;28;20057;-87
2022/10/07 12:18:03;;;;;;;8.40;1.33;;;;;;;;;;4961676;28;20078;-87
2022/10/07 12:20:43;;;;;;;7.68;1.20;;;;;;;;;;4960619;28;20364;-87
2022/10/07 12:23:21;;;;;;;3.83;0.90;;;;;;;;;;4966367;28;20058;-86
2022/10/07 12:25:52;;;;;;;3.92;0.90;;;;;;;;;;4968885;28;20029;-87
2022/10/07 12:28:47;;;;;;;5.32;1.05;;;;;;;;;;4970735;28;20023;-87
2022/10/07 12:31:16;;;;;;;6.80;1.20;;;;;;;;;;4976348;28;20030;-87
2022/10/07 12:33:44;;;;;;;3.30;1.08;;;;;;;;;;4976735;28;20110;-87
2022/10/07 12:36:26;;;;;;;4.65;0.90;;;;;;;;;;4972660;28;20054;-88
2022/10/07 12:38:55;;;;;;;7.30;1.42;;;;;;;;;;4969559;28;20061;-86
2022/10/07 12:41:35;;;;;;;6.00;1.42;;;;;;;;;;4967395;28;20043;-87
2022/10/07 12:44:07;;;;;;;5.15;1.33;;;;;;;;;;4973017;28;20069;-87
2022/10/07 12:46:41;;;;;;;6.20;1.00;;;;;;;;;;4974114;28;20058;-87
2022/10/07 12:49:22;;;;;;;5.05;1.10;;;;;;;;;;4976343;28;20023;-88
2022/10/07 12:51:48;;;;;;;8.50;1.20;;;;;;;;;;4974338;28;20019;-87
2022/10/07 12:54:24;;;;;;;4.50;1.02;;;;;;;;;;4972523;28;20042;-87
2022/10/07 12:56:49;;;;;;;5.38;1.23;;;;;;;;;;4970479;28;20478;-88
2022/10/07 13:02:30;;;;;;;3.60;1.05;;;;;;;;;;4973885;28;20037;-86
2022/10/07 13:05:22;;;;;;;4.65;0.90;;;;;;;;;;4970071;28;21688;-87
2022/10/07 13:08:03;;;;;;;8.43;1.30;;;;;;;;;;4968492;28;20035;-87
2022/10/07 13:10:47;;;;;;;3.63;1.02;;;;;;;;;;4972624;28;20082;-87
2022/10/07 13:13:39;;;;;;;4.47;0.90;;;;;;;;;;4973375;28;20054;-87
2022/10/07 13:16:13;;;;;;;4.45;1.20;;;;;;;;;;4977210;28;20486;-87
2022/10/07 13:18:40;;;;;;;4.57;1.30;;;;;;;;;;4973441;28;20035;-87
2022/10/07 13:21:24;;;;;;;5.50;1.10;;;;;;;;;;4977082;28;20130;-87
2022/10/07 13:23:52;;;;;;;7.72;1.60;;;;;;;;;;4985524;28;20037;-87
2022/10/07 13:26:21;;;;;;;5.43;1.60;;;;;;;;;;4974210;28;20446;-86
2022/10/07 13:28:57;;;;;;;5.68;1.30;;;;;;;;;;4974173;28;20062;-87
2022/10/07 13:31:25;;;;;;;4.80;1.38;;;;;;;;;;4973307;28;20037;-87
2022/10/07 13:33:52;;;;;;;6.43;1.58;;;;;;;;;;4966107;28;20023;-88
2022/10/07 13:36:24;;;;;;;4.45;1.13;;;;;;;;;;4969662;28;20451;-87
2022/10/07 13:38:52;;;;;;;5.18;1.00;;;;;;;;;;4965875;28;20027;-87
2022/10/07 13:41:25;;;;;;;5.10;1.23;;;;;;;;;;4969165;28;20031;-87
2022/10/07 13:43:54;;;;;;;5.68;1.20;;;;;;;;;;4972711;28;20023;-87
2022/10/07 13:46:22;;;;;;;4.93;1.02;;;;;;;;;;4967346;28;20483;-88
2022/10/07 13:48:48;;;;;;;4.15;1.38;;;;;;;;;;4969189;28;20053;-87
2022/10/07 13:51:39;;;;;;;5.45;1.08;;;;;;;;;;4967735;28;20071;-86
2022/10/07 13:54:15;;;;;;;5.45;1.55;;;;;;;;;;4972556;28;21395;-88
2022/10/07 13:56:41;;;;;;;6.63;1.38;;;;;;;;;;4965600;28;20039;-88
2022/10/07 13:59:14;;;;;;;5.22;1.25;;;;;;;;;;4969763;28;20491;-88
2022/10/07 14:01:40;;;;;;;4.88;1.13;;;;;;;;;;4967383;28;20034;-87
2022/10/07 14:04:30;;;;;;;9.68;1.25;;;;;;;;;;4969581;28;20023;-88
2022/10/07 14:07:15;;;;;;;6.53;1.17;;;;;;;;;;4966817;28;20479;-87
2022/10/07 14:09:47;;;;;;;4.80;1.10;;;;;;;;;;4967792;28;20434;-87
2022/10/07 14:12:21;;;;;;;3.03;1.00;;;;;;;;;;4971353;28;20066;-88
2022/10/07 14:14:48;;;;;;;5.85;1.20;;;;;;;;;;4966991;28;20031;-86
2022/10/07 14:17:31;;;;;;;6.00;1.50;;;;;;;;;;4965350;28;20081;-87
2022/10/07 14:20:04;;;;;;;5.90;1.10;;;;;;;;;;4971674;28;20038;-86
2022/10/07 14:22:37;;;;;;;5.80;1.48;;;;;;;;;;4969613;28;20066;-87
2022/10/07 14:25:05;;;;;;;3.78;1.15;;;;;;;;;;4969023;28;20027;-88
2022/10/07 14:27:39;;;;;;;6.30;1.63;;;;;;;;;;4970411;28;20031;-87
2022/10/07 14:35:17;;;;;;;4.90;1.15;;;;;;;;;;4971612;28;20033;-87
2022/10/07 14:36:26;;;;;;;7.40;1.55;;;;;;;;;;4968210;28;20443;-86
2022/10/07 14:38:53;;;;;;;6.72;1.23;;;;;;;;;;4969102;28;20022;-87
2022/10/07 14:41:20;;;;;;;5.25;1.42;;;;;;;;;;4964476;28;20026;-86
2022/10/07 14:43:48;;;;;;;5.03;1.48;;;;;;;;;;4966969;28;20085;-88
2022/10/07 14:46:20;;;;;;;5.43;1.40;;;;;;;;;;4970130;28;20037;-87
2022/10/07 14:48:46;;;;;;;5.50;1.40;;;;;;;;;;4971088;28;20027;-87
2022/10/07 14:51:13;;;;;;;5.68;1.17;;;;;;;;;;4971109;28;20026;-88
2022/10/07 14:53:40;;;;;;;3.50;1.35;;;;;;;;;;4972463;28;20459;-86
2022/10/07 14:56:10;;;;;;;3.53;1.05;;;;;;;;;;4964210;28;20026;-87
2022/10/07 14:58:35;;;;;;;4.63;1.25;;;;;;;;;;4961521;28;20443;-87
2022/10/07 15:01:01;;;;;;;5.03;1.10;;;;;;;;;;4969345;28;20023;-87
2022/10/07 15:03:28;;;;;;;6.00;1.23;;;;;;;;;;4970084;28;20027;-87
2022/10/07 15:05:53;;;;;;;6.13;1.17;;;;;;;;;;4964993;28;20035;-87
2022/10/07 15:08:19;;;;;;;6.93;1.30;;;;;;;;;;4971507;28;20034;-86
2022/10/07 15:10:45;;;;;;;4.57;1.42;;;;;;;;;;4971145;28;20055;-86
2022/10/07 15:13:13;;;;;;;4.65;0.93;;;;;;;;;;4962382;28;20039;-86
2022/10/07 15:15:40;;;;;;;4.22;0.93;;;;;;;;;;4954005;28;20594;-86
2022/10/07 15:18:07;;;;;;;4.78;0.90;;;;;;;;;;4954767;28;20018;-87
2022/10/07 15:20:32;;;;;;;5.50;1.02;;;;;;;;;;4961108;28;20034;-86
2022/10/07 15:22:58;;;;;;;3.83;1.48;;;;;;;;;;4965518;28;20407;-85
2022/10/07 15:25:23;;;;;;;5.80;1.33;;;;;;;;;;4965424;28;20035;-86
2022/10/07 15:27:48;;;;;;;4.57;1.00;;;;;;;;;;4966777;28;20034;-85
2022/10/07 15:30:14;;;;;;;8.20;1.20;;;;;;;;;;4965141;28;20383;-86